sensor_id;sensor_type;location;lat;lon;timestamp;P1;durP1;ratioP1;P2;durP2;ratioP2
35667;SDS011;22158;59.280;17.806;2023-09-19T00:02:16;14.98;;;6.28;;
35667;SDS011;22158;59.280;17.806;2023-09-19T00:04:42;15.35;;;6.57;;
35667;SDS011;22158;59.280;17.806;2023-09-19T00:07:08;13.43;;;6.72;;
35667;SDS011;22158;59.280;17.806;2023-09-19T00:09:36;12.60;;;7.35;;
35667;SDS011;22158;59.280;17.806;2023-09-19T00:12:05;14.82;;;7.63;;
35667;SDS011;22158;59.280;17.806;2023-09-19T00:14:32;15.40;;;7.72;;
35667;SDS011;22158;59.280;17.806;2023-09-19T00:17:03;13.85;;;7.55;;
35667;SDS011;22158;59.280;17.806;2023-09-19T00:19:36;18.08;;;7.35;;
35667;SDS011;22158;59.280;17.806;2023-09-19T00:22:02;15.13;;;7.35;;
35667;SDS011;22158;59.280;17.806;2023-09-19T00:24:29;16.38;;;8.30;;
35667;SDS011;22158;59.280;17.806;2023-09-19T00:26:55;12.30;;;7.88;;
35667;SDS011;22158;59.280;17.806;2023-09-19T00:29:21;11.70;;;8.00;;
35667;SDS011;22158;59.280;17.806;2023-09-19T00:31:48;13.75;;;7.68;;
35667;SDS011;22158;59.280;17.806;2023-09-19T00:34:14;14.75;;;7.63;;
35667;SDS011;22158;59.280;17.806;2023-09-19T00:36:41;15.35;;;8.18;;
35667;SDS011;22158;59.280;17.806;2023-09-19T00:39:08;15.60;;;8.43;;
35667;SDS011;22158;59.280;17.806;2023-09-19T00:41:35;19.45;;;8.32;;
35667;SDS011;22158;59.280;17.806;2023-09-19T00:44:02;12.70;;;8.23;;
35667;SDS011;22158;59.280;17.806;2023-09-19T00:46:29;20.48;;;9.15;;
35667;SDS011;22158;59.280;17.806;2023-09-19T00:48:57;15.35;;;9.02;;
35667;SDS011;22158;59.280;17.806;2023-09-19T00:51:24;23.48;;;9.35;;
35667;SDS011;22158;59.280;17.806;2023-09-19T00:53:51;17.58;;;8.73;;
35667;SDS011;22158;59.280;17.806;2023-09-19T00:56:17;20.15;;;9.30;;
35667;SDS011;22158;59.280;17.806;2023-09-19T00:58:44;16.58;;;9.70;;
35667;SDS011;22158;59.280;17.806;2023-09-19T01:01:11;17.00;;;9.32;;
35667;SDS011;22158;59.280;17.806;2023-09-19T01:03:39;16.85;;;10.48;;
35667;SDS011;22158;59.280;17.806;2023-09-19T01:06:06;21.42;;;10.57;;
35667;SDS011;22158;59.280;17.806;2023-09-19T01:08:33;16.55;;;10.20;;
35667;SDS011;22158;59.280;17.806;2023-09-19T01:11:01;12.23;;;8.45;;
35667;SDS011;22158;59.280;17.806;2023-09-19T01:13:43;18.48;;;9.75;;
35667;SDS011;22158;59.280;17.806;2023-09-19T01:29:44;17.00;;;10.00;;
35667;SDS011;22158;59.280;17.806;2023-09-19T01:32:13;20.83;;;10.25;;
35667;SDS011;22158;59.280;17.806;2023-09-19T01:34:47;15.80;;;11.63;;
35667;SDS011;22158;59.280;17.806;2023-09-19T01:37:19;17.15;;;10.32;;
35667;SDS011;22158;59.280;17.806;2023-09-19T01:39:49;17.05;;;10.68;;
35667;SDS011;22158;59.280;17.806;2023-09-19T01:42:27;20.45;;;11.25;;
35667;SDS011;22158;59.280;17.806;2023-09-19T01:47:42;20.35;;;11.40;;
35667;SDS011;22158;59.280;17.806;2023-09-19T01:56:05;24.52;;;12.23;;
35667;SDS011;22158;59.280;17.806;2023-09-19T01:58:41;19.65;;;12.35;;
35667;SDS011;22158;59.280;17.806;2023-09-19T02:01:11;19.15;;;12.57;;
35667;SDS011;22158;59.280;17.806;2023-09-19T02:03:43;17.67;;;11.15;;
35667;SDS011;22158;59.280;17.806;2023-09-19T02:06:15;19.30;;;13.18;;
35667;SDS011;22158;59.280;17.806;2023-09-19T02:08:42;24.30;;;12.77;;
35667;SDS011;22158;59.280;17.806;2023-09-19T02:11:08;18.30;;;11.38;;
35667;SDS011;22158;59.280;17.806;2023-09-19T02:13:33;30.20;;;16.25;;
35667;SDS011;22158;59.280;17.806;2023-09-19T02:15:59;20.85;;;13.05;;
35667;SDS011;22158;59.280;17.806;2023-09-19T02:18:25;22.15;;;12.52;;
35667;SDS011;22158;59.280;17.806;2023-09-19T02:20:53;18.88;;;12.95;;
35667;SDS011;22158;59.280;17.806;2023-09-19T02:23:19;18.55;;;12.27;;
35667;SDS011;22158;59.280;17.806;2023-09-19T02:25:52;23.70;;;14.40;;
35667;SDS011;22158;59.280;17.806;2023-09-19T02:28:26;19.27;;;12.18;;
35667;SDS011;22158;59.280;17.806;2023-09-19T02:30:57;23.92;;;12.63;;
35667;SDS011;22158;59.280;17.806;2023-09-19T02:33:23;21.55;;;13.30;;
35667;SDS011;22158;59.280;17.806;2023-09-19T02:35:48;20.27;;;13.63;;
35667;SDS011;22158;59.280;17.806;2023-09-19T02:38:14;27.05;;;13.07;;
35667;SDS011;22158;59.280;17.806;2023-09-19T02:40:43;25.98;;;14.73;;
35667;SDS011;22158;59.280;17.806;2023-09-19T02:43:08;25.45;;;14.38;;
35667;SDS011;22158;59.280;17.806;2023-09-19T02:45:34;23.98;;;14.38;;
35667;SDS011;22158;59.280;17.806;2023-09-19T02:48:00;18.95;;;13.73;;
35667;SDS011;22158;59.280;17.806;2023-09-19T02:50:29;23.63;;;14.10;;
35667;SDS011;22158;59.280;17.806;2023-09-19T02:52:54;27.40;;;14.82;;
35667;SDS011;22158;59.280;17.806;2023-09-19T02:55:20;20.45;;;13.70;;
35667;SDS011;22158;59.280;17.806;2023-09-19T02:57:50;25.73;;;14.82;;
35667;SDS011;22158;59.280;17.806;2023-09-19T03:00:17;28.38;;;14.85;;
35667;SDS011;22158;59.280;17.806;2023-09-19T03:02:50;19.63;;;13.52;;
35667;SDS011;22158;59.280;17.806;2023-09-19T03:05:17;25.45;;;15.45;;
35667;SDS011;22158;59.280;17.806;2023-09-19T03:07:43;30.73;;;16.40;;
35667;SDS011;22158;59.280;17.806;2023-09-19T03:10:10;27.40;;;14.75;;
35667;SDS011;22158;59.280;17.806;2023-09-19T03:12:36;25.88;;;15.50;;
35667;SDS011;22158;59.280;17.806;2023-09-19T03:15:02;28.73;;;16.30;;
35667;SDS011;22158;59.280;17.806;2023-09-19T03:17:29;26.95;;;15.05;;
35667;SDS011;22158;59.280;17.806;2023-09-19T03:19:55;27.02;;;16.88;;
35667;SDS011;22158;59.280;17.806;2023-09-19T03:22:22;28.05;;;17.40;;
35667;SDS011;22158;59.280;17.806;2023-09-19T03:24:47;28.55;;;17.08;;
35667;SDS011;22158;59.280;17.806;2023-09-19T03:27:13;31.45;;;16.25;;
35667;SDS011;22158;59.280;17.806;2023-09-19T03:29:42;29.90;;;16.73;;
35667;SDS011;22158;59.280;17.806;2023-09-19T03:32:08;30.70;;;16.33;;
35667;SDS011;22158;59.280;17.806;2023-09-19T03:34:37;21.92;;;14.85;;
35667;SDS011;22158;59.280;17.806;2023-09-19T03:37:08;23.40;;;15.40;;
35667;SDS011;22158;59.280;17.806;2023-09-19T03:39:34;28.05;;;16.75;;
35667;SDS011;22158;59.280;17.806;2023-09-19T03:42:00;25.00;;;17.63;;
35667;SDS011;22158;59.280;17.806;2023-09-19T03:44:29;23.98;;;16.58;;
35667;SDS011;22158;59.280;17.806;2023-09-19T03:46:55;27.73;;;16.58;;
35667;SDS011;22158;59.280;17.806;2023-09-19T03:49:21;31.42;;;16.63;;
35667;SDS011;22158;59.280;17.806;2023-09-19T03:51:47;32.55;;;18.33;;
35667;SDS011;22158;59.280;17.806;2023-09-19T03:54:13;40.15;;;18.73;;
35667;SDS011;22158;59.280;17.806;2023-09-19T03:56:38;21.30;;;15.02;;
35667;SDS011;22158;59.280;17.806;2023-09-19T03:59:04;26.27;;;16.95;;
35667;SDS011;22158;59.280;17.806;2023-09-19T04:01:30;28.27;;;16.45;;
35667;SDS011;22158;59.280;17.806;2023-09-19T04:03:57;28.58;;;17.48;;
35667;SDS011;22158;59.280;17.806;2023-09-19T04:06:23;23.85;;;15.73;;
35667;SDS011;22158;59.280;17.806;2023-09-19T04:08:48;26.73;;;17.77;;
35667;SDS011;22158;59.280;17.806;2023-09-19T04:11:14;28.45;;;17.20;;
35667;SDS011;22158;59.280;17.806;2023-09-19T04:13:40;25.20;;;16.02;;
35667;SDS011;22158;59.280;17.806;2023-09-19T04:16:05;33.05;;;16.33;;
35667;SDS011;22158;59.280;17.806;2023-09-19T04:18:34;29.15;;;17.50;;
35667;SDS011;22158;59.280;17.806;2023-09-19T04:21:03;29.15;;;16.83;;
35667;SDS011;22158;59.280;17.806;2023-09-19T04:23:30;29.35;;;16.50;;
35667;SDS011;22158;59.280;17.806;2023-09-19T04:25:57;28.33;;;18.05;;
35667;SDS011;22158;59.280;17.806;2023-09-19T04:28:22;29.10;;;17.23;;
35667;SDS011;22158;59.280;17.806;2023-09-19T04:30:49;28.70;;;17.63;;
35667;SDS011;22158;59.280;17.806;2023-09-19T04:33:15;33.85;;;19.52;;
35667;SDS011;22158;59.280;17.806;2023-09-19T04:35:40;25.08;;;16.98;;
35667;SDS011;22158;59.280;17.806;2023-09-19T04:38:07;27.88;;;18.23;;
35667;SDS011;22158;59.280;17.806;2023-09-19T04:40:33;29.85;;;17.08;;
35667;SDS011;22158;59.280;17.806;2023-09-19T04:42:59;34.83;;;18.15;;
35667;SDS011;22158;59.280;17.806;2023-09-19T04:45:25;29.45;;;18.90;;
35667;SDS011;22158;59.280;17.806;2023-09-19T04:47:52;28.90;;;16.77;;
35667;SDS011;22158;59.280;17.806;2023-09-19T04:50:18;26.30;;;18.25;;
35667;SDS011;22158;59.280;17.806;2023-09-19T04:52:46;27.67;;;18.88;;
35667;SDS011;22158;59.280;17.806;2023-09-19T04:55:16;30.98;;;19.30;;
35667;SDS011;22158;59.280;17.806;2023-09-19T04:57:51;30.60;;;17.83;;
35667;SDS011;22158;59.280;17.806;2023-09-19T05:00:20;30.25;;;18.83;;
35667;SDS011;22158;59.280;17.806;2023-09-19T05:02:49;29.20;;;16.88;;
35667;SDS011;22158;59.280;17.806;2023-09-19T05:05:19;26.40;;;18.98;;
35667;SDS011;22158;59.280;17.806;2023-09-19T05:07:45;29.80;;;18.52;;
35667;SDS011;22158;59.280;17.806;2023-09-19T05:10:11;28.75;;;18.88;;
35667;SDS011;22158;59.280;17.806;2023-09-19T05:12:37;25.90;;;17.10;;
35667;SDS011;22158;59.280;17.806;2023-09-19T05:15:03;31.55;;;17.38;;
35667;SDS011;22158;59.280;17.806;2023-09-19T05:17:29;24.13;;;17.52;;
35667;SDS011;22158;59.280;17.806;2023-09-19T05:19:56;32.50;;;18.20;;
35667;SDS011;22158;59.280;17.806;2023-09-19T05:22:23;31.58;;;19.13;;
35667;SDS011;22158;59.280;17.806;2023-09-19T05:24:49;32.25;;;17.83;;
35667;SDS011;22158;59.280;17.806;2023-09-19T05:27:16;30.77;;;16.63;;
35667;SDS011;22158;59.280;17.806;2023-09-19T05:29:45;27.88;;;17.58;;
35667;SDS011;22158;59.280;17.806;2023-09-19T05:32:10;29.80;;;17.10;;
35667;SDS011;22158;59.280;17.806;2023-09-19T05:34:37;27.17;;;17.15;;
35667;SDS011;22158;59.280;17.806;2023-09-19T05:37:03;25.42;;;17.10;;
35667;SDS011;22158;59.280;17.806;2023-09-19T05:39:32;27.58;;;18.67;;
35667;SDS011;22158;59.280;17.806;2023-09-19T05:41:58;25.88;;;16.98;;
35667;SDS011;22158;59.280;17.806;2023-09-19T05:44:26;27.77;;;18.60;;
35667;SDS011;22158;59.280;17.806;2023-09-19T05:46:51;26.33;;;17.10;;
35667;SDS011;22158;59.280;17.806;2023-09-19T05:49:18;27.58;;;17.95;;
35667;SDS011;22158;59.280;17.806;2023-09-19T05:51:46;27.20;;;18.27;;
35667;SDS011;22158;59.280;17.806;2023-09-19T05:54:12;30.60;;;19.50;;
35667;SDS011;22158;59.280;17.806;2023-09-19T05:56:37;26.38;;;17.00;;
35667;SDS011;22158;59.280;17.806;2023-09-19T05:59:03;27.65;;;17.95;;
35667;SDS011;22158;59.280;17.806;2023-09-19T06:01:30;28.08;;;16.85;;
35667;SDS011;22158;59.280;17.806;2023-09-19T06:03:57;33.30;;;17.58;;
35667;SDS011;22158;59.280;17.806;2023-09-19T06:06:25;32.45;;;18.75;;
35667;SDS011;22158;59.280;17.806;2023-09-19T06:08:51;28.25;;;18.17;;
35667;SDS011;22158;59.280;17.806;2023-09-19T06:11:16;25.33;;;16.58;;
35667;SDS011;22158;59.280;17.806;2023-09-19T06:13:45;23.73;;;17.45;;
35667;SDS011;22158;59.280;17.806;2023-09-19T06:16:12;25.13;;;16.27;;
35667;SDS011;22158;59.280;17.806;2023-09-19T06:18:38;33.35;;;16.70;;
35667;SDS011;22158;59.280;17.806;2023-09-19T06:21:03;26.08;;;17.77;;
35667;SDS011;22158;59.280;17.806;2023-09-19T06:23:32;27.83;;;17.83;;
35667;SDS011;22158;59.280;17.806;2023-09-19T06:26:01;24.48;;;16.90;;
35667;SDS011;22158;59.280;17.806;2023-09-19T06:28:27;31.08;;;17.73;;
35667;SDS011;22158;59.280;17.806;2023-09-19T06:30:53;25.77;;;18.45;;
35667;SDS011;22158;59.280;17.806;2023-09-19T06:33:20;26.63;;;16.90;;
35667;SDS011;22158;59.280;17.806;2023-09-19T06:35:46;24.17;;;16.67;;
35667;SDS011;22158;59.280;17.806;2023-09-19T06:38:13;25.58;;;16.60;;
35667;SDS011;22158;59.280;17.806;2023-09-19T06:40:40;28.75;;;16.40;;
35667;SDS011;22158;59.280;17.806;2023-09-19T06:43:07;27.85;;;15.88;;
35667;SDS011;22158;59.280;17.806;2023-09-19T06:45:35;21.23;;;15.52;;
35667;SDS011;22158;59.280;17.806;2023-09-19T06:48:00;25.00;;;15.88;;
35667;SDS011;22158;59.280;17.806;2023-09-19T06:50:28;24.15;;;15.48;;
35667;SDS011;22158;59.280;17.806;2023-09-19T06:52:56;22.90;;;16.17;;
35667;SDS011;22158;59.280;17.806;2023-09-19T06:55:24;21.25;;;15.25;;
35667;SDS011;22158;59.280;17.806;2023-09-19T06:57:52;25.65;;;15.73;;
35667;SDS011;22158;59.280;17.806;2023-09-19T07:00:21;24.00;;;15.60;;
35667;SDS011;22158;59.280;17.806;2023-09-19T07:03:01;23.23;;;15.20;;
35667;SDS011;22158;59.280;17.806;2023-09-19T07:05:33;22.20;;;16.33;;
35667;SDS011;22158;59.280;17.806;2023-09-19T07:08:02;22.45;;;16.42;;
35667;SDS011;22158;59.280;17.806;2023-09-19T07:10:29;23.30;;;15.32;;
35667;SDS011;22158;59.280;17.806;2023-09-19T07:13:02;31.92;;;17.58;;
35667;SDS011;22158;59.280;17.806;2023-09-19T07:15:34;23.20;;;16.17;;
35667;SDS011;22158;59.280;17.806;2023-09-19T07:18:11;26.40;;;16.42;;
35667;SDS011;22158;59.280;17.806;2023-09-19T07:20:41;28.43;;;15.37;;
35667;SDS011;22158;59.280;17.806;2023-09-19T07:23:13;22.35;;;15.48;;
35667;SDS011;22158;59.280;17.806;2023-09-19T07:25:40;24.15;;;15.90;;
35667;SDS011;22158;59.280;17.806;2023-09-19T07:28:06;24.92;;;15.45;;
35667;SDS011;22158;59.280;17.806;2023-09-19T07:30:31;32.30;;;15.18;;
35667;SDS011;22158;59.280;17.806;2023-09-19T07:32:57;23.17;;;16.60;;
35667;SDS011;22158;59.280;17.806;2023-09-19T07:35:23;24.23;;;16.17;;
35667;SDS011;22158;59.280;17.806;2023-09-19T07:37:49;22.05;;;15.05;;
35667;SDS011;22158;59.280;17.806;2023-09-19T07:40:16;26.00;;;15.68;;
35667;SDS011;22158;59.280;17.806;2023-09-19T07:42:42;22.88;;;15.98;;
35667;SDS011;22158;59.280;17.806;2023-09-19T07:45:09;23.10;;;15.57;;
35667;SDS011;22158;59.280;17.806;2023-09-19T07:47:39;21.27;;;14.18;;
35667;SDS011;22158;59.280;17.806;2023-09-19T07:50:08;21.83;;;14.50;;
35667;SDS011;22158;59.280;17.806;2023-09-19T07:52:34;25.88;;;14.52;;
35667;SDS011;22158;59.280;17.806;2023-09-19T07:55:00;24.42;;;14.27;;
35667;SDS011;22158;59.280;17.806;2023-09-19T07:57:31;25.67;;;14.27;;
35667;SDS011;22158;59.280;17.806;2023-09-19T07:59:59;23.55;;;15.20;;
35667;SDS011;22158;59.280;17.806;2023-09-19T08:02:25;22.30;;;14.20;;
35667;SDS011;22158;59.280;17.806;2023-09-19T08:04:51;21.98;;;14.63;;
35667;SDS011;22158;59.280;17.806;2023-09-19T08:07:17;25.63;;;13.90;;
35667;SDS011;22158;59.280;17.806;2023-09-19T08:09:43;21.55;;;14.30;;
35667;SDS011;22158;59.280;17.806;2023-09-19T08:12:13;28.20;;;14.80;;
35667;SDS011;22158;59.280;17.806;2023-09-19T08:14:40;19.70;;;15.00;;
35667;SDS011;22158;59.280;17.806;2023-09-19T08:17:08;23.88;;;14.15;;
35667;SDS011;22158;59.280;17.806;2023-09-19T08:19:34;28.95;;;15.43;;
35667;SDS011;22158;59.280;17.806;2023-09-19T08:22:01;20.98;;;14.55;;
35667;SDS011;22158;59.280;17.806;2023-09-19T08:24:28;27.30;;;15.52;;
35667;SDS011;22158;59.280;17.806;2023-09-19T08:26:55;21.23;;;15.05;;
35667;SDS011;22158;59.280;17.806;2023-09-19T08:29:22;28.90;;;14.05;;
35667;SDS011;22158;59.280;17.806;2023-09-19T08:34:24;24.33;;;14.30;;
35667;SDS011;22158;59.280;17.806;2023-09-19T08:36:51;19.73;;;13.23;;
35667;SDS011;22158;59.280;17.806;2023-09-19T08:39:18;19.77;;;13.93;;
35667;SDS011;22158;59.280;17.806;2023-09-19T08:41:44;24.17;;;13.52;;
35667;SDS011;22158;59.280;17.806;2023-09-19T08:44:10;19.80;;;13.18;;
35667;SDS011;22158;59.280;17.806;2023-09-19T08:46:35;20.42;;;13.18;;
35667;SDS011;22158;59.280;17.806;2023-09-19T08:49:04;21.98;;;13.98;;
35667;SDS011;22158;59.280;17.806;2023-09-19T08:51:40;24.48;;;13.80;;
35667;SDS011;22158;59.280;17.806;2023-09-19T08:54:27;18.67;;;12.50;;
35667;SDS011;22158;59.280;17.806;2023-09-19T08:56:57;23.85;;;12.57;;
35667;SDS011;22158;59.280;17.806;2023-09-19T09:01:54;22.50;;;12.50;;
35667;SDS011;22158;59.280;17.806;2023-09-19T09:04:21;15.43;;;12.15;;
35667;SDS011;22158;59.280;17.806;2023-09-19T09:06:47;20.40;;;11.20;;
35667;SDS011;22158;59.280;17.806;2023-09-19T09:09:15;17.02;;;10.60;;
35667;SDS011;22158;59.280;17.806;2023-09-19T09:11:42;16.98;;;9.80;;
35667;SDS011;22158;59.280;17.806;2023-09-19T09:14:07;18.75;;;10.13;;
35667;SDS011;22158;59.280;17.806;2023-09-19T09:16:34;16.13;;;10.13;;
35667;SDS011;22158;59.280;17.806;2023-09-19T09:18:59;17.73;;;10.52;;
35667;SDS011;22158;59.280;17.806;2023-09-19T09:21:26;14.98;;;10.35;;
35667;SDS011;22158;59.280;17.806;2023-09-19T09:23:53;18.67;;;10.32;;
35667;SDS011;22158;59.280;17.806;2023-09-19T09:29:04;14.18;;;10.50;;
35667;SDS011;22158;59.280;17.806;2023-09-19T09:31:29;13.48;;;9.32;;
35667;SDS011;22158;59.280;17.806;2023-09-19T09:33:55;17.75;;;9.80;;
35667;SDS011;22158;59.280;17.806;2023-09-19T09:39:01;15.73;;;9.93;;
35667;SDS011;22158;59.280;17.806;2023-09-19T09:41:41;14.02;;;8.70;;
35667;SDS011;22158;59.280;17.806;2023-09-19T09:44:13;17.33;;;9.55;;
35667;SDS011;22158;59.280;17.806;2023-09-19T09:46:44;12.73;;;8.10;;
35667;SDS011;22158;59.280;17.806;2023-09-19T09:49:25;13.95;;;9.05;;
35667;SDS011;22158;59.280;17.806;2023-09-19T09:52:04;13.05;;;8.98;;
35667;SDS011;22158;59.280;17.806;2023-09-19T09:54:41;12.65;;;8.95;;
35667;SDS011;22158;59.280;17.806;2023-09-19T09:59:58;10.82;;;7.20;;
35667;SDS011;22158;59.280;17.806;2023-09-19T10:02:44;18.67;;;8.80;;
35667;SDS011;22158;59.280;17.806;2023-09-19T10:05:12;11.82;;;7.82;;
35667;SDS011;22158;59.280;17.806;2023-09-19T10:07:44;11.98;;;7.38;;
35667;SDS011;22158;59.280;17.806;2023-09-19T10:10:34;10.60;;;6.40;;
35667;SDS011;22158;59.280;17.806;2023-09-19T10:13:08;22.67;;;8.15;;
35667;SDS011;22158;59.280;17.806;2023-09-19T10:15:39;9.88;;;6.88;;
35667;SDS011;22158;59.280;17.806;2023-09-19T10:18:15;9.13;;;7.13;;
35667;SDS011;22158;59.280;17.806;2023-09-19T10:20:46;13.45;;;6.55;;
35667;SDS011;22158;59.280;17.806;2023-09-19T10:23:14;22.42;;;6.93;;
35667;SDS011;22158;59.280;17.806;2023-09-19T10:25:45;13.45;;;6.28;;
35667;SDS011;22158;59.280;17.806;2023-09-19T10:28:13;9.40;;;5.93;;
35667;SDS011;22158;59.280;17.806;2023-09-19T10:30:41;10.57;;;6.43;;
35667;SDS011;22158;59.280;17.806;2023-09-19T10:33:12;7.22;;;4.78;;
35667;SDS011;22158;59.280;17.806;2023-09-19T10:35:40;7.25;;;5.80;;
35667;SDS011;22158;59.280;17.806;2023-09-19T10:38:09;11.80;;;5.43;;
35667;SDS011;22158;59.280;17.806;2023-09-19T10:40:36;8.45;;;5.53;;
35667;SDS011;22158;59.280;17.806;2023-09-19T10:43:07;9.98;;;5.38;;
35667;SDS011;22158;59.280;17.806;2023-09-19T10:45:43;6.47;;;5.47;;
35667;SDS011;22158;59.280;17.806;2023-09-19T10:48:10;9.70;;;5.07;;
35667;SDS011;22158;59.280;17.806;2023-09-19T10:50:41;8.98;;;5.13;;
35667;SDS011;22158;59.280;17.806;2023-09-19T10:53:25;8.00;;;6.10;;
35667;SDS011;22158;59.280;17.806;2023-09-19T10:55:55;12.30;;;5.63;;
35667;SDS011;22158;59.280;17.806;2023-09-19T10:58:27;10.63;;;6.07;;
35667;SDS011;22158;59.280;17.806;2023-09-19T11:00:55;8.43;;;5.45;;
35667;SDS011;22158;59.280;17.806;2023-09-19T11:03:27;9.82;;;5.65;;
35667;SDS011;22158;59.280;17.806;2023-09-19T11:11:44;6.75;;;4.60;;
35667;SDS011;22158;59.280;17.806;2023-09-19T11:30:41;3.10;;;2.15;;
35667;SDS011;22158;59.280;17.806;2023-09-19T11:36:04;5.38;;;1.65;;
35667;SDS011;22158;59.280;17.806;2023-09-19T11:43:50;5.47;;;2.00;;
35667;SDS011;22158;59.280;17.806;2023-09-19T11:46:19;5.18;;;1.92;;
35667;SDS011;22158;59.280;17.806;2023-09-19T11:48:49;5.38;;;2.00;;
35667;SDS011;22158;59.280;17.806;2023-09-19T11:51:16;5.68;;;1.95;;
35667;SDS011;22158;59.280;17.806;2023-09-19T11:53:52;5.10;;;1.60;;
35667;SDS011;22158;59.280;17.806;2023-09-19T11:56:24;2.70;;;1.42;;
35667;SDS011;22158;59.280;17.806;2023-09-19T11:58:53;5.55;;;1.30;;
35667;SDS011;22158;59.280;17.806;2023-09-19T12:01:24;6.28;;;1.45;;
35667;SDS011;22158;59.280;17.806;2023-09-19T12:03:58;2.65;;;1.50;;
35667;SDS011;22158;59.280;17.806;2023-09-19T12:06:25;2.55;;;1.02;;
35667;SDS011;22158;59.280;17.806;2023-09-19T12:08:51;6.28;;;1.35;;
35667;SDS011;22158;59.280;17.806;2023-09-19T12:11:19;6.13;;;1.50;;
35667;SDS011;22158;59.280;17.806;2023-09-19T12:13:46;3.90;;;1.20;;
35667;SDS011;22158;59.280;17.806;2023-09-19T12:18:47;3.80;;;1.73;;
35667;SDS011;22158;59.280;17.806;2023-09-19T12:21:21;2.28;;;1.40;;
35667;SDS011;22158;59.280;17.806;2023-09-19T12:26:54;5.25;;;1.67;;
35667;SDS011;22158;59.280;17.806;2023-09-19T12:29:26;4.82;;;1.48;;
35667;SDS011;22158;59.280;17.806;2023-09-19T12:34:28;4.10;;;1.30;;
35667;SDS011;22158;59.280;17.806;2023-09-19T12:37:11;2.97;;;1.40;;
35667;SDS011;22158;59.280;17.806;2023-09-19T12:39:41;3.75;;;1.25;;
35667;SDS011;22158;59.280;17.806;2023-09-19T12:42:09;7.32;;;2.28;;
35667;SDS011;22158;59.280;17.806;2023-09-19T12:44:39;3.20;;;2.05;;
35667;SDS011;22158;59.280;17.806;2023-09-19T12:47:16;7.47;;;1.33;;
35667;SDS011;22158;59.280;17.806;2023-09-19T12:50:04;3.83;;;1.25;;
35667;SDS011;22158;59.280;17.806;2023-09-19T12:52:38;3.72;;;1.50;;
35667;SDS011;22158;59.280;17.806;2023-09-19T12:55:05;6.85;;;1.85;;
35667;SDS011;22158;59.280;17.806;2023-09-19T12:57:36;4.57;;;2.25;;
35667;SDS011;22158;59.280;17.806;2023-09-19T13:00:05;3.83;;;1.70;;
35667;SDS011;22158;59.280;17.806;2023-09-19T13:02:32;4.32;;;1.50;;
35667;SDS011;22158;59.280;17.806;2023-09-19T13:04:58;3.05;;;1.27;;
35667;SDS011;22158;59.280;17.806;2023-09-19T13:07:44;4.78;;;1.45;;
35667;SDS011;22158;59.280;17.806;2023-09-19T13:10:15;3.80;;;1.63;;
35667;SDS011;22158;59.280;17.806;2023-09-19T13:12:41;6.75;;;1.73;;
35667;SDS011;22158;59.280;17.806;2023-09-19T13:15:13;8.38;;;2.00;;
35667;SDS011;22158;59.280;17.806;2023-09-19T13:17:45;9.13;;;2.67;;
35667;SDS011;22158;59.280;17.806;2023-09-19T13:20:23;5.28;;;1.80;;
35667;SDS011;22158;59.280;17.806;2023-09-19T13:22:52;3.28;;;1.63;;
35667;SDS011;22158;59.280;17.806;2023-09-19T13:25:20;7.13;;;1.83;;
35667;SDS011;22158;59.280;17.806;2023-09-19T13:27:50;2.58;;;1.30;;
35667;SDS011;22158;59.280;17.806;2023-09-19T13:30:25;4.75;;;1.42;;
35667;SDS011;22158;59.280;17.806;2023-09-19T13:33:06;5.25;;;2.15;;
35667;SDS011;22158;59.280;17.806;2023-09-19T13:35:36;2.30;;;1.20;;
35667;SDS011;22158;59.280;17.806;2023-09-19T13:38:03;7.18;;;2.88;;
35667;SDS011;22158;59.280;17.806;2023-09-19T13:40:29;3.88;;;1.60;;
35667;SDS011;22158;59.280;17.806;2023-09-19T13:42:55;6.05;;;1.88;;
35667;SDS011;22158;59.280;17.806;2023-09-19T13:45:21;3.92;;;1.65;;
35667;SDS011;22158;59.280;17.806;2023-09-19T13:47:49;6.93;;;2.40;;
35667;SDS011;22158;59.280;17.806;2023-09-19T13:50:15;4.50;;;1.60;;
35667;SDS011;22158;59.280;17.806;2023-09-19T13:52:41;2.17;;;1.40;;
35667;SDS011;22158;59.280;17.806;2023-09-19T13:55:07;4.53;;;1.98;;
35667;SDS011;22158;59.280;17.806;2023-09-19T13:57:33;3.28;;;1.40;;
35667;SDS011;22158;59.280;17.806;2023-09-19T13:59:59;6.30;;;1.50;;
35667;SDS011;22158;59.280;17.806;2023-09-19T14:02:24;6.63;;;1.35;;
35667;SDS011;22158;59.280;17.806;2023-09-19T14:04:51;2.40;;;1.13;;
35667;SDS011;22158;59.280;17.806;2023-09-19T14:07:17;3.60;;;1.33;;
35667;SDS011;22158;59.280;17.806;2023-09-19T14:09:45;3.90;;;1.67;;
35667;SDS011;22158;59.280;17.806;2023-09-19T14:12:10;3.58;;;0.82;;
35667;SDS011;22158;59.280;17.806;2023-09-19T14:14:36;4.80;;;1.35;;
35667;SDS011;22158;59.280;17.806;2023-09-19T14:17:03;3.50;;;1.60;;
35667;SDS011;22158;59.280;17.806;2023-09-19T14:19:29;2.78;;;1.20;;
35667;SDS011;22158;59.280;17.806;2023-09-19T14:21:54;6.43;;;1.23;;
35667;SDS011;22158;59.280;17.806;2023-09-19T14:24:21;5.55;;;1.50;;
35667;SDS011;22158;59.280;17.806;2023-09-19T14:26:47;2.17;;;1.20;;
35667;SDS011;22158;59.280;17.806;2023-09-19T14:29:14;4.05;;;1.55;;
35667;SDS011;22158;59.280;17.806;2023-09-19T14:31:39;3.53;;;1.27;;
35667;SDS011;22158;59.280;17.806;2023-09-19T14:34:06;5.50;;;2.53;;
35667;SDS011;22158;59.280;17.806;2023-09-19T14:36:32;2.47;;;1.35;;
35667;SDS011;22158;59.280;17.806;2023-09-19T14:38:58;4.45;;;1.17;;
35667;SDS011;22158;59.280;17.806;2023-09-19T14:41:24;4.90;;;1.20;;
35667;SDS011;22158;59.280;17.806;2023-09-19T14:43:53;4.00;;;1.48;;
35667;SDS011;22158;59.280;17.806;2023-09-19T14:46:20;5.55;;;1.38;;
35667;SDS011;22158;59.280;17.806;2023-09-19T14:48:46;7.43;;;1.30;;
35667;SDS011;22158;59.280;17.806;2023-09-19T14:51:12;3.05;;;1.15;;
35667;SDS011;22158;59.280;17.806;2023-09-19T14:53:38;2.10;;;1.30;;
35667;SDS011;22158;59.280;17.806;2023-09-19T14:56:05;2.38;;;1.13;;
35667;SDS011;22158;59.280;17.806;2023-09-19T14:58:32;2.92;;;2.25;;
35667;SDS011;22158;59.280;17.806;2023-09-19T15:01:05;3.45;;;1.42;;
35667;SDS011;22158;59.280;17.806;2023-09-19T15:03:32;3.00;;;1.23;;
35667;SDS011;22158;59.280;17.806;2023-09-19T15:05:59;6.60;;;1.98;;
35667;SDS011;22158;59.280;17.806;2023-09-19T15:08:32;3.65;;;1.10;;
35667;SDS011;22158;59.280;17.806;2023-09-19T15:10:59;5.78;;;1.23;;
35667;SDS011;22158;59.280;17.806;2023-09-19T15:13:29;2.65;;;1.15;;
35667;SDS011;22158;59.280;17.806;2023-09-19T15:15:59;3.00;;;1.10;;
35667;SDS011;22158;59.280;17.806;2023-09-19T15:18:28;2.60;;;0.90;;
35667;SDS011;22158;59.280;17.806;2023-09-19T15:21:01;4.93;;;1.40;;
35667;SDS011;22158;59.280;17.806;2023-09-19T15:23:28;4.95;;;1.10;;
35667;SDS011;22158;59.280;17.806;2023-09-19T15:25:59;4.57;;;1.45;;
35667;SDS011;22158;59.280;17.806;2023-09-19T15:28:26;5.07;;;1.50;;
35667;SDS011;22158;59.280;17.806;2023-09-19T15:31:00;5.50;;;1.63;;
35667;SDS011;22158;59.280;17.806;2023-09-19T15:33:26;1.45;;;0.95;;
35667;SDS011;22158;59.280;17.806;2023-09-19T15:35:59;1.45;;;0.85;;
35667;SDS011;22158;59.280;17.806;2023-09-19T15:38:32;1.77;;;0.93;;
35667;SDS011;22158;59.280;17.806;2023-09-19T15:41:25;1.30;;;0.90;;